Time;durP1;ratioP1;P1;durP2;ratioP2;P2;SDS_P1;SDS_P2;PMS_P1;PMS_P2;Temp;Humidity;BMP_temperature;BMP_pressure;BME280_temperature;BME280_humidity;BME280_pressure;Samples;Min_cycle;Max_cycle;Signal;HPM_P1;HPM_P2
2021/03/09 00:01:43;;;;;;;;;;;1.00;99.90;;;;;;5053987;28;19905;-78
2021/03/09 00:04:08;;;;;;;;;;;1.00;99.90;;;;;;5053260;28;20313;-80
2021/03/09 00:06:34;;;;;;;;;;;1.00;99.90;;;;;;5053677;28;19908;-78
2021/03/09 00:08:59;;;;;;;;;;;1.10;99.90;;;;;;5053490;28;19952;-77
2021/03/09 00:11:25;;;;;;;;;;;1.00;99.90;;;;;;5053814;28;19905;-78
2021/03/09 00:13:50;;;;;;;;;;;0.90;99.90;;;;;;5053250;28;19912;-79
2021/03/09 00:16:16;;;;;;;;;;;0.90;99.90;;;;;;5027849;28;19959;-78
2021/03/09 00:18:41;;;;;;;;;;;0.90;99.90;;;;;;5033230;28;19920;-78
2021/03/09 00:21:07;;;;;;;;;;;1.00;99.90;;;;;;5033761;28;20301;-80
2021/03/09 00:23:32;;;;;;;;;;;0.90;99.90;;;;;;5035093;28;19909;-80
2021/03/09 00:25:58;;;;;;;;;;;0.90;99.90;;;;;;5049414;28;20315;-80
2021/03/09 00:28:23;;;;;;;;;;;1.00;99.90;;;;;;5052136;28;19905;-80
2021/03/09 00:30:49;;;;;;;;;;;1.10;99.90;;;;;;5048188;28;19965;-80
2021/03/09 00:33:14;;;;;;;;;;;1.00;99.90;;;;;;5040656;28;19931;-79
2021/03/09 00:35:40;;;;;;;;;;;1.00;99.90;;;;;;5034327;28;20382;-80
2021/03/09 00:38:05;;;;;;;;;;;1.00;99.90;;;;;;5033039;28;19909;-79
2021/03/09 00:40:31;;;;;;;;;;;1.00;99.90;;;;;;5033119;28;19905;-80
2021/03/09 00:42:57;;;;;;;;;;;1.00;99.90;;;;;;5032985;28;19948;-78
2021/03/09 00:45:22;;;;;;;;;;;1.00;99.90;;;;;;5031928;28;19913;-79
2021/03/09 00:47:48;;;;;;;;;;;1.00;99.90;;;;;;5032812;28;19913;-80
2021/03/09 00:50:13;;;;;;;;;;;1.00;99.90;;;;;;5032728;28;19905;-80
2021/03/09 00:52:39;;;;;;;;;;;0.90;99.90;;;;;;5032828;28;20011;-80
2021/03/09 00:55:05;;;;;;;;;;;0.90;99.90;;;;;;5032290;28;19905;-80
2021/03/09 00:57:30;;;;;;;;;;;1.00;99.90;;;;;;5032753;28;19905;-80
2021/03/09 00:59:56;;;;;;;;;;;1.00;99.90;;;;;;5032441;28;19913;-80
2021/03/09 01:02:21;;;;;;;;;;;1.10;99.90;;;;;;5032659;28;20267;-79
2021/03/09 01:04:47;;;;;;;;;;;1.00;99.90;;;;;;5030888;28;19993;-79
2021/03/09 01:07:12;;;;;;;;;;;1.00;99.90;;;;;;5032415;28;19909;-80
2021/03/09 01:09:38;;;;;;;;;;;0.90;99.90;;;;;;5032094;28;19944;-80
2021/03/09 01:12:04;;;;;;;;;;;0.90;99.90;;;;;;5032569;28;19912;-80
2021/03/09 01:14:29;;;;;;;;;;;1.10;99.90;;;;;;5029033;28;19967;-79
2021/03/09 01:16:55;;;;;;;;;;;1.10;99.90;;;;;;5032001;28;19905;-80
2021/03/09 01:19:20;;;;;;;;;;;1.10;99.90;;;;;;5031592;28;19913;-80
2021/03/09 01:21:46;;;;;;;;;;;1.10;99.90;;;;;;5032249;28;19951;-79
2021/03/09 01:24:11;;;;;;;;;;;1.00;99.90;;;;;;5031599;28;19905;-80
2021/03/09 01:26:37;;;;;;;;;;;1.00;99.90;;;;;;5032248;28;19952;-80
2021/03/09 01:29:02;;;;;;;;;;;0.90;99.90;;;;;;5031941;28;19931;-80
2021/03/09 01:31:28;;;;;;;;;;;0.90;99.90;;;;;;5034324;28;19928;-80
2021/03/09 01:33:53;;;;;;;;;;;0.90;99.90;;;;;;5037107;28;19927;-80
2021/03/09 01:36:19;;;;;;;;;;;0.90;99.90;;;;;;5033960;28;19905;-81
2021/03/09 01:38:44;;;;;;;;;;;0.80;99.90;;;;;;5032733;28;20366;-80
2021/03/09 01:41:11;;;;;;;;;;;0.80;99.90;;;;;;5031825;28;19952;-79
2021/03/09 01:43:37;;;;;;;;;;;0.80;99.90;;;;;;5031824;28;19905;-80
2021/03/09 01:46:02;;;;;;;;;;;0.70;99.90;;;;;;5023753;28;19913;-80
2021/03/09 01:48:32;;;;;;;;;;;0.70;99.90;;;;;;5031490;28;20377;-80
2021/03/09 01:50:57;;;;;;;;;;;0.60;99.90;;;;;;5031500;28;19941;-80
2021/03/09 01:53:23;;;;;;;;;;;0.60;99.90;;;;;;5031794;28;19932;-80
2021/03/09 01:55:49;;;;;;;;;;;0.60;99.90;;;;;;5031226;28;19905;-80
2021/03/09 01:58:15;;;;;;;;;;;0.60;99.90;;;;;;5031400;28;19920;-80
2021/03/09 02:00:41;;;;;;;;;;;0.60;99.90;;;;;;5031431;28;19909;-80
2021/03/09 02:03:06;;;;;;;;;;;0.60;99.90;;;;;;5031432;28;20474;-80
2021/03/09 02:05:32;;;;;;;;;;;0.60;99.90;;;;;;5031522;28;20000;-80
2021/03/09 02:07:58;;;;;;;;;;;0.60;99.90;;;;;;5031668;28;19905;-80
2021/03/09 02:10:23;;;;;;;;;;;0.60;99.90;;;;;;5031784;28;20000;-80
2021/03/09 02:13:06;;;;;;;;;;;0.50;99.90;;;;;;5031642;28;19905;-80
2021/03/09 02:15:31;;;;;;;;;;;0.60;99.90;;;;;;5029359;28;19915;-80
2021/03/09 02:18:09;;;;;;;;;;;0.60;99.90;;;;;;5031294;28;20270;-80
2021/03/09 02:20:44;;;;;;;;;;;0.60;99.90;;;;;;5030951;28;20374;-80
2021/03/09 02:23:10;;;;;;;;;;;0.60;99.90;;;;;;5031263;28;20099;-80
2021/03/09 02:26:02;;;;;;;;;;;0.60;99.90;;;;;;5030575;28;20397;-80
2021/03/09 02:28:46;;;;;;;;;;;0.50;99.90;;;;;;4993891;28;19905;-80
2021/03/09 02:31:12;;;;;;;;;;;0.50;99.90;;;;;;5031133;28;19928;-80
2021/03/09 02:33:39;;;;;;;;;;;0.40;99.90;;;;;;5031109;28;20362;-80
2021/03/09 02:36:07;;;;;;;;;;;0.40;99.90;;;;;;5030814;28;19904;-80
2021/03/09 02:38:43;;;;;;;;;;;0.40;99.90;;;;;;5030614;28;20012;-80
2021/03/09 02:41:10;;;;;;;;;;;0.30;99.90;;;;;;5030765;28;19951;-80
2021/03/09 02:43:35;;;;;;;;;;;0.30;99.90;;;;;;5031006;28;20355;-80
2021/03/09 02:46:02;;;;;;;;;;;0.20;99.90;;;;;;5029656;28;20015;-80
2021/03/09 02:48:27;;;;;;;;;;;0.10;99.90;;;;;;5030702;28;20008;-80
2021/03/09 02:50:55;;;;;;;;;;;0.10;99.90;;;;;;5030417;28;20409;-80
2021/03/09 02:53:22;;;;;;;;;;;0.10;99.90;;;;;;5030784;28;19909;-80
2021/03/09 02:55:48;;;;;;;;;;;0.10;99.90;;;;;;5030754;28;19905;-81
2021/03/09 02:58:16;;;;;;;;;;;0.00;99.90;;;;;;5030563;28;20358;-80
2021/03/09 03:00:42;;;;;;;;;;;0.00;99.90;;;;;;5031992;28;19928;-80
2021/03/09 03:03:08;;;;;;;;;;;0.10;99.90;;;;;;5030909;28;20236;-80
2021/03/09 03:05:34;;;;;;;;;;;0.10;99.90;;;;;;5030291;28;20259;-80
2021/03/09 03:08:03;;;;;;;;;;;0.20;99.90;;;;;;5030879;28;19905;-80
2021/03/09 03:10:28;;;;;;;;;;;0.10;99.90;;;;;;5030725;28;20350;-80
2021/03/09 03:12:55;;;;;;;;;;;0.10;99.90;;;;;;5030769;28;20012;-80
2021/03/09 03:15:20;;;;;;;;;;;0.00;99.90;;;;;;5030290;28;19963;-81
2021/03/09 03:17:46;;;;;;;;;;;0.00;99.90;;;;;;5032273;28;19905;-80
2021/03/09 03:20:13;;;;;;;;;;;0.00;99.90;;;;;;5048747;28;19920;-81
2021/03/09 03:22:40;;;;;;;;;;;0.00;99.90;;;;;;5047809;28;20358;-81
2021/03/09 03:25:07;;;;;;;;;;;0.00;99.90;;;;;;5042990;28;19905;-81
2021/03/09 03:27:33;;;;;;;;;;;0.00;99.90;;;;;;5035117;28;19944;-80
2021/03/09 03:29:58;;;;;;;;;;;0.00;99.90;;;;;;5028819;28;19945;-80
2021/03/09 03:32:24;;;;;;;;;;;0.10;99.90;;;;;;5034177;28;19916;-81
2021/03/09 03:34:49;;;;;;;;;;;0.10;99.90;;;;;;5033851;28;19905;-80
2021/03/09 03:37:15;;;;;;;;;;;0.10;99.90;;;;;;5034300;28;20342;-80
2021/03/09 03:39:41;;;;;;;;;;;0.20;99.90;;;;;;5034095;28;19956;-80
2021/03/09 03:42:07;;;;;;;;;;;0.20;99.90;;;;;;5034283;28;19909;-80
2021/03/09 03:44:33;;;;;;;;;;;0.20;99.90;;;;;;5033739;28;19955;-80
2021/03/09 03:46:58;;;;;;;;;;;0.20;99.90;;;;;;5034086;28;19912;-80
2021/03/09 03:49:24;;;;;;;;;;;0.20;99.90;;;;;;5033825;28;19905;-80
2021/03/09 03:51:52;;;;;;;;;;;0.20;99.90;;;;;;5033979;28;19906;-80
2021/03/09 03:54:23;;;;;;;;;;;0.20;99.90;;;;;;5033358;28;19999;-80
2021/03/09 03:57:06;;;;;;;;;;;0.20;99.90;;;;;;5033971;28;19905;-80
2021/03/09 03:59:34;;;;;;;;;;;0.20;99.90;;;;;;5030511;28;19920;-80
2021/03/09 04:02:01;;;;;;;;;;;0.20;99.90;;;;;;5033356;28;19909;-81
2021/03/09 04:04:27;;;;;;;;;;;0.20;99.90;;;;;;5032781;28;19905;-80
2021/03/09 04:06:53;;;;;;;;;;;0.20;99.90;;;;;;5032573;28;19909;-80
2021/03/09 04:09:20;;;;;;;;;;;0.30;99.90;;;;;;5030396;28;19905;-80
2021/03/09 04:11:46;;;;;;;;;;;0.30;99.90;;;;;;5033464;28;19943;-80
2021/03/09 04:14:12;;;;;;;;;;;0.30;99.90;;;;;;5044128;28;20384;-80
2021/03/09 04:16:40;;;;;;;;;;;0.40;99.90;;;;;;5053303;28;19916;-80
2021/03/09 04:19:06;;;;;;;;;;;0.30;99.90;;;;;;5053554;28;19909;-80
2021/03/09 04:21:32;;;;;;;;;;;0.40;99.90;;;;;;5053689;28;19905;-80
2021/03/09 04:23:58;;;;;;;;;;;0.40;99.90;;;;;;5035572;28;19905;-80
2021/03/09 04:26:24;;;;;;;;;;;0.40;99.90;;;;;;5035011;28;20374;-80
2021/03/09 04:28:50;;;;;;;;;;;0.50;99.90;;;;;;5033054;28;19912;-80
2021/03/09 04:31:19;;;;;;;;;;;0.50;99.90;;;;;;5033086;28;20346;-80
2021/03/09 04:33:45;;;;;;;;;;;0.60;99.90;;;;;;5033183;28;19905;-80
2021/03/09 04:36:11;;;;;;;;;;;0.60;99.90;;;;;;5033014;28;19911;-80
2021/03/09 04:38:37;;;;;;;;;;;0.70;99.90;;;;;;5032638;28;19999;-81
2021/03/09 04:41:03;;;;;;;;;;;0.70;99.90;;;;;;5032967;28;19936;-80
2021/03/09 04:43:28;;;;;;;;;;;0.70;99.90;;;;;;5032911;28;19905;-80
2021/03/09 04:45:57;;;;;;;;;;;0.60;99.90;;;;;;5023837;28;19909;-80
2021/03/09 04:48:24;;;;;;;;;;;0.70;99.90;;;;;;5032853;28;19955;-80
2021/03/09 04:50:50;;;;;;;;;;;0.70;99.90;;;;;;5032644;28;19913;-80
2021/03/09 04:53:16;;;;;;;;;;;0.60;99.90;;;;;;5032918;28;19905;-80
2021/03/09 04:55:41;;;;;;;;;;;0.70;99.90;;;;;;5032314;28;19905;-80
2021/03/09 04:58:07;;;;;;;;;;;0.60;99.90;;;;;;5032766;28;19920;-80
2021/03/09 05:00:32;;;;;;;;;;;0.60;99.90;;;;;;5032513;28;19912;-80
2021/03/09 05:02:58;;;;;;;;;;;0.70;99.90;;;;;;5032682;28;19951;-80
2021/03/09 05:05:24;;;;;;;;;;;0.70;99.90;;;;;;5032258;28;19995;-80
2021/03/09 05:07:50;;;;;;;;;;;0.70;99.90;;;;;;5032460;28;19909;-80
2021/03/09 05:10:16;;;;;;;;;;;0.60;99.90;;;;;;5032062;28;19913;-80
2021/03/09 05:12:43;;;;;;;;;;;0.60;99.90;;;;;;5032256;28;20358;-80
2021/03/09 05:15:09;;;;;;;;;;;0.70;99.90;;;;;;5031658;28;19905;-80
2021/03/09 05:17:35;;;;;;;;;;;0.70;99.90;;;;;;5032803;28;19904;-80
2021/03/09 05:20:00;;;;;;;;;;;0.70;99.90;;;;;;5041896;28;20358;-80
2021/03/09 05:22:26;;;;;;;;;;;0.70;99.90;;;;;;5052794;28;19905;-80
2021/03/09 05:24:52;;;;;;;;;;;0.70;99.90;;;;;;5043297;28;19909;-81
2021/03/09 05:27:17;;;;;;;;;;;0.70;99.90;;;;;;5055925;28;19904;-81
2021/03/09 05:29:43;;;;;;;;;;;0.70;99.90;;;;;;5053004;28;19933;-80
2021/03/09 05:32:08;;;;;;;;;;;0.70;99.90;;;;;;5032159;28;19904;-80
2021/03/09 05:34:34;;;;;;;;;;;0.60;99.90;;;;;;5031836;28;19905;-80
2021/03/09 05:36:59;;;;;;;;;;;0.70;99.90;;;;;;5032383;28;19912;-80
2021/03/09 05:39:25;;;;;;;;;;;0.70;99.90;;;;;;5031862;28;19908;-80
2021/03/09 05:41:50;;;;;;;;;;;0.80;99.90;;;;;;5031712;28;19911;-79
2021/03/09 05:44:16;;;;;;;;;;;0.80;99.90;;;;;;5033862;28;20274;-80
2021/03/09 05:46:42;;;;;;;;;;;0.80;99.90;;;;;;5040871;28;19987;-80
2021/03/09 05:49:08;;;;;;;;;;;0.70;99.90;;;;;;5042989;28;19909;-80
2021/03/09 05:51:33;;;;;;;;;;;0.70;99.90;;;;;;5037002;28;19909;-81
2021/03/09 05:53:59;;;;;;;;;;;0.70;99.90;;;;;;5038786;28;19972;-80
2021/03/09 05:56:25;;;;;;;;;;;0.80;99.90;;;;;;5042987;28;19908;-79
2021/03/09 05:58:52;;;;;;;;;;;0.80;99.90;;;;;;5040043;28;19952;-80
2021/03/09 06:01:17;;;;;;;;;;;0.80;99.90;;;;;;5036802;28;20260;-80
2021/03/09 06:03:43;;;;;;;;;;;0.80;99.90;;;;;;5036880;28;19955;-79
2021/03/09 06:06:10;;;;;;;;;;;0.80;99.90;;;;;;5035239;28;19909;-79
2021/03/09 06:08:36;;;;;;;;;;;0.90;99.90;;;;;;5050262;28;19905;-80
2021/03/09 06:11:12;;;;;;;;;;;1.00;99.90;;;;;;5032670;28;20354;-80
2021/03/09 06:13:37;;;;;;;;;;;1.00;99.90;;;;;;5043049;28;19989;-79
2021/03/09 06:16:03;;;;;;;;;;;1.00;99.90;;;;;;5049037;28;19905;-80
2021/03/09 06:18:28;;;;;;;;;;;1.00;99.90;;;;;;5040583;28;20092;-80
2021/03/09 06:21:14;;;;;;;;;;;1.00;99.90;;;;;;5029802;28;19905;-80
2021/03/09 06:23:41;;;;;;;;;;;1.00;99.90;;;;;;5028754;28;19916;-80
2021/03/09 06:26:25;;;;;;;;;;;1.10;99.90;;;;;;5029461;28;19905;-80
2021/03/09 06:29:04;;;;;;;;;;;1.20;99.90;;;;;;5029106;28;19905;-80
2021/03/09 06:31:30;;;;;;;;;;;1.30;99.90;;;;;;5029799;28;19905;-80
2021/03/09 06:34:15;;;;;;;;;;;1.30;99.90;;;;;;5032118;28;20342;-80
2021/03/09 06:36:41;;;;;;;;;;;1.40;99.90;;;;;;5031709;28;19909;-80
2021/03/09 06:39:06;;;;;;;;;;;1.40;99.90;;;;;;5037062;28;20007;-80
2021/03/09 06:41:32;;;;;;;;;;;1.50;99.90;;;;;;5029191;28;19916;-80
2021/03/09 06:44:03;;;;;;;;;;;1.50;99.90;;;;;;5028558;28;19959;-80
2021/03/09 06:46:29;;;;;;;;;;;1.50;99.90;;;;;;5024835;28;19905;-80
2021/03/09 06:49:01;;;;;;;;;;;1.60;99.90;;;;;;5029005;28;19905;-80
2021/03/09 06:51:28;;;;;;;;;;;1.70;99.90;;;;;;5028969;28;19905;-80
2021/03/09 06:54:04;;;;;;;;;;;1.90;99.90;;;;;;5028752;28;19905;-80
2021/03/09 06:56:30;;;;;;;;;;;1.90;99.90;;;;;;5029799;28;19905;-80
2021/03/09 06:58:55;;;;;;;;;;;2.10;99.90;;;;;;5029314;28;19967;-80
2021/03/09 07:01:21;;;;;;;;;;;2.20;99.90;;;;;;5030181;28;19905;-80
2021/03/09 07:03:47;;;;;;;;;;;2.20;99.90;;;;;;5013781;28;19921;-80
2021/03/09 07:06:13;;;;;;;;;;;2.30;99.90;;;;;;5029713;28;19905;-80
2021/03/09 07:08:39;;;;;;;;;;;2.40;99.90;;;;;;5030621;28;19905;-80
2021/03/09 07:11:04;;;;;;;;;;;2.60;99.90;;;;;;5029689;28;20326;-80
2021/03/09 07:13:30;;;;;;;;;;;2.60;99.90;;;;;;5027560;28;19905;-80
2021/03/09 07:15:56;;;;;;;;;;;2.60;99.90;;;;;;5037462;28;19908;-80
2021/03/09 07:18:26;;;;;;;;;;;2.70;99.90;;;;;;5029681;28;19913;-80
2021/03/09 07:20:52;;;;;;;;;;;2.80;99.90;;;;;;5028751;28;19955;-80
2021/03/09 07:23:19;;;;;;;;;;;2.90;99.90;;;;;;5029299;28;20310;-80
2021/03/09 07:25:55;;;;;;;;;;;3.00;99.90;;;;;;5028554;28;19905;-80
2021/03/09 07:28:22;;;;;;;;;;;3.00;99.90;;;;;;5028680;28;19906;-81
2021/03/09 07:30:50;;;;;;;;;;;3.00;99.90;;;;;;5024682;28;19974;-81
2021/03/09 07:33:16;;;;;;;;;;;3.00;99.90;;;;;;5027881;28;19911;-80
2021/03/09 07:35:43;;;;;;;;;;;3.20;99.90;;;;;;5036933;28;19909;-81
2021/03/09 07:38:10;;;;;;;;;;;3.30;99.90;;;;;;5028754;28;19909;-80
2021/03/09 07:40:36;;;;;;;;;;;3.30;99.90;;;;;;5028637;28;20255;-81
2021/03/09 07:43:03;;;;;;;;;;;3.40;99.90;;;;;;5029361;28;20008;-81
2021/03/09 07:45:32;;;;;;;;;;;3.40;99.90;;;;;;5028622;28;20317;-81
2021/03/09 07:48:06;;;;;;;17.30;8.00;;;3.60;99.90;;;;;;5028753;28;19943;-81
2021/03/09 07:50:33;;;;;;;;;;;3.80;99.90;;;;;;5027664;28;20017;-81
2021/03/09 07:52:59;;;;;;;;;;;3.80;99.90;;;;;;5032314;28;19924;-82
2021/03/09 07:55:25;;;;;;;;;;;3.70;99.90;;;;;;5037760;28;20354;-81
2021/03/09 07:58:10;;;;;;;;;;;3.80;99.90;;;;;;5040494;28;19943;-81
2021/03/09 08:00:48;;;;;;;;;;;4.10;99.90;;;;;;5031916;28;19987;-82
2021/03/09 08:03:18;;;;;;;;;;;4.40;99.90;;;;;;5037887;28;20354;-81
2021/03/09 08:05:52;;;;;;;;;;;4.30;99.90;;;;;;5037395;28;19909;-81
2021/03/09 08:08:37;;;;;;;;;;;4.40;99.90;;;;;;5035976;28;20007;-82
2021/03/09 08:11:03;;;;;;;;;;;4.30;99.90;;;;;;5035726;28;19913;-82
2021/03/09 08:13:29;;;;;;;;;;;4.50;99.90;;;;;;5041906;28;19927;-82
2021/03/09 08:16:14;;;;;;;;;;;4.70;99.90;;;;;;5042267;28;19904;-81
2021/03/09 08:18:40;;;;;;;;;;;5.10;99.90;;;;;;5036102;28;19915;-80
2021/03/09 08:21:06;;;;;;;;;;;5.10;99.90;;;;;;5040058;28;19947;-81
2021/03/09 08:23:32;;;;;;;;;;;5.00;99.90;;;;;;5044273;28;19943;-81
2021/03/09 08:25:58;;;;;;;;;;;5.20;99.90;;;;;;5051929;28;19943;-81
2021/03/09 08:28:30;;;;;;;;;;;5.30;99.90;;;;;;5052350;28;19909;-80
2021/03/09 08:31:16;;;;;;;;;;;5.70;99.90;;;;;;5040399;28;19955;-80
2021/03/09 08:33:48;;;;;;;;;;;5.70;99.90;;;;;;5033213;28;20354;-81
2021/03/09 08:36:20;;;;;;;;;;;5.80;99.90;;;;;;5031708;28;19909;-80
2021/03/09 08:41:41;;;;;;;17.65;7.32;;;5.90;99.90;;;;;;5014259;28;20033;-80
2021/03/09 08:44:19;;;;;;;16.30;7.20;;;5.80;99.90;;;;;;5038837;28;20079;-80
2021/03/09 08:47:05;;;;;;;15.30;7.32;;;5.70;99.90;;;;;;5033677;28;20027;-80
2021/03/09 08:49:37;;;;;;;13.93;5.73;;;6.10;99.90;;;;;;5017804;28;20558;-81
2021/03/09 08:52:07;;;;;;;12.77;5.90;;;6.40;99.90;;;;;;5031637;28;20029;-81
2021/03/09 08:54:45;;;;;;;18.20;7.18;;;6.70;99.90;;;;;;5032938;28;20021;-80
2021/03/09 08:57:22;;;;;;;14.60;7.38;;;6.90;99.90;;;;;;5043214;28;20026;-81
2021/03/09 08:59:50;;;;;;;13.45;6.68;;;7.20;99.90;;;;;;5044991;28;20102;-81
2021/03/09 09:02:21;;;;;;;14.05;7.15;;;7.20;99.90;;;;;;5026125;28;20021;-81
2021/03/09 09:04:52;;;;;;;12.02;7.38;;;7.20;99.90;;;;;;5023914;28;20064;-81
2021/03/09 09:07:26;;;;;;;13.75;7.05;;;7.20;99.90;;;;;;5036321;28;20024;-81
2021/03/09 09:10:18;;;;;;;12.70;5.93;;;7.40;99.90;;;;;;5051361;28;20506;-80
2021/03/09 09:12:46;;;;;;;11.05;6.13;;;7.80;99.90;;;;;;5036484;28;20029;-80
2021/03/09 09:15:20;;;;;;;11.30;5.93;;;7.60;99.90;;;;;;5036260;28;20029;-80
2021/03/09 09:17:50;;;;;;;14.23;7.43;;;7.70;99.90;;;;;;5043189;28;20029;-80
2021/03/09 09:20:28;;;;;;;11.55;6.57;;;7.80;99.90;;;;;;5053448;28;20029;-78
2021/03/09 09:22:55;;;;;;;13.48;7.05;;;7.80;99.90;;;;;;5037145;28;20045;-80
2021/03/09 09:25:23;;;;;;;11.45;6.47;;;8.40;99.90;;;;;;5032307;28;20025;-78
2021/03/09 09:27:58;;;;;;;15.15;6.40;;;8.80;99.90;;;;;;5033163;28;20162;-78
2021/03/09 09:30:35;;;;;;;16.20;6.88;;;8.50;99.90;;;;;;5028059;28;19996;-78
2021/03/09 09:33:03;;;;;;;12.70;7.00;;;8.90;99.90;;;;;;5031283;28;20025;-78
2021/03/09 09:35:30;;;;;;;13.23;7.55;;;8.70;99.90;;;;;;5030593;28;20029;-80
2021/03/09 09:38:02;;;;;;;17.35;6.32;;;8.80;99.90;;;;;;5031405;28;20113;-80
2021/03/09 09:40:34;;;;;;;11.00;6.63;;;9.20;99.90;;;;;;5030794;28;20030;-80
2021/03/09 09:43:13;;;;;;;16.33;7.45;;;9.50;99.90;;;;;;5038564;28;20022;-80
2021/03/09 09:46:07;;;;;;;15.15;7.53;;;9.80;99.90;;;;;;5051533;28;20021;-81
2021/03/09 09:48:38;;;;;;;12.98;6.10;;;9.60;99.90;;;;;;5050590;28;20029;-80
2021/03/09 09:51:12;;;;;;;11.70;6.57;;;9.90;99.90;;;;;;5050555;28;20025;-80
2021/03/09 09:53:40;;;;;;;14.48;6.97;;;9.90;99.90;;;;;;5043779;28;20117;-80
2021/03/09 09:56:21;;;;;;;15.27;7.88;;;9.80;99.90;;;;;;5038038;28;20072;-80
2021/03/09 09:58:59;;;;;;;15.95;7.40;;;10.30;99.90;;;;;;5046569;28;20113;-81
2021/03/09 10:01:36;;;;;;;13.18;7.03;;;10.50;99.90;;;;;;5049369;28;20024;-81
2021/03/09 10:04:04;;;;;;;11.98;6.53;;;10.80;99.90;;;;;;5031459;28;20064;-81
2021/03/09 10:06:47;;;;;;;13.65;7.63;;;10.60;99.90;;;;;;5030522;28;20021;-80
2021/03/09 10:09:18;;;;;;;16.60;7.72;;;10.90;99.90;;;;;;5030212;28;20112;-81
2021/03/09 10:11:52;;;;;;;12.77;6.53;;;11.40;99.90;;;;;;5036387;28;20112;-80
2021/03/09 10:14:20;;;;;;;12.90;7.20;;;11.90;99.90;;;;;;5039662;28;20029;-80
2021/03/09 10:16:47;;;;;;;17.48;8.27;;;11.30;99.90;;;;;;5045711;28;20390;-80
2021/03/09 10:19:17;;;;;;;12.23;6.22;;;11.50;99.90;;;;;;5049368;28;20563;-80
2021/03/09 10:21:44;;;;;;;15.48;6.75;;;11.80;99.90;;;;;;5037755;28;20030;-80
2021/03/09 10:24:23;;;;;;;11.60;6.57;;;12.10;98.80;;;;;;5048498;28;20108;-80
2021/03/09 10:26:50;;;;;;;15.13;6.95;;;12.20;99.90;;;;;;5049518;28;20482;-80
2021/03/09 10:29:34;;;;;;;;;;;12.10;99.20;;;;;;5049775;28;20067;-81
2021/03/09 10:32:02;;;;;;;11.43;6.45;;;12.60;96.00;;;;;;5009584;28;19905;-80
2021/03/09 10:34:39;;;;;;;12.73;6.80;;;12.90;95.00;;;;;;5009838;28;20026;-80
2021/03/09 10:37:06;;;;;;;14.43;7.93;;;13.40;93.40;;;;;;5010107;28;20070;-79
2021/03/09 10:39:35;;;;;;;11.40;6.88;;;13.70;92.60;;;;;;5010500;28;20526;-82
2021/03/09 10:42:33;;;;;;;10.93;6.70;;;13.60;91.50;;;;;;5009406;28;20161;-81
2021/03/09 10:45:26;;;;;;;15.02;7.68;;;13.40;90.30;;;;;;5011195;28;20513;-80
2021/03/09 10:48:00;;;;;;;12.02;7.20;;;13.00;92.30;;;;;;5027977;28;20022;-81
2021/03/09 10:50:30;;;;;;;13.82;8.05;;;13.10;93.40;;;;;;5029698;28;20029;-81
2021/03/09 10:52:58;;;;;;;13.80;7.68;;;13.80;91.60;;;;;;5032764;28;20104;-81
2021/03/09 10:55:24;;;;;;;12.25;6.43;;;14.90;82.80;;;;;;5034985;28;20030;-81
2021/03/09 10:57:50;;;;;;;11.20;7.03;;;15.60;82.10;;;;;;5035659;28;20021;-82
2021/03/09 11:00:19;;;;;;;13.35;7.38;;;15.10;80.60;;;;;;5034367;28;20364;-81
2021/03/09 11:02:47;;;;;;;11.02;6.97;;;13.90;81.00;;;;;;5037234;28;20025;-79
2021/03/09 11:05:13;;;;;;;11.52;6.10;;;13.60;85.60;;;;;;5039342;28;20024;-81
2021/03/09 11:07:46;;;;;;;10.05;5.82;;;13.30;86.70;;;;;;5033451;28;20060;-80
2021/03/09 11:10:14;;;;;;;11.68;7.07;;;13.00;88.20;;;;;;5028413;28;20513;-80
2021/03/09 11:12:40;;;;;;;12.43;6.30;;;12.00;90.80;;;;;;5029034;28;20029;-80
2021/03/09 11:15:08;;;;;;;8.98;4.97;;;12.20;93.10;;;;;;5028430;28;20036;-81
2021/03/09 11:17:33;;;;;;;10.38;5.68;;;13.00;85.30;;;;;;5030462;28;20029;-81
2021/03/09 11:19:59;;;;;;;9.98;5.68;;;13.70;82.50;;;;;;5028601;28;20028;-79
2021/03/09 11:22:26;;;;;;;12.85;6.07;;;13.50;85.80;;;;;;5029131;28;20097;-79
2021/03/09 11:24:51;;;;;;;10.80;5.67;;;13.00;82.20;;;;;;5028687;28;20022;-81
2021/03/09 11:27:17;;;;;;;10.93;6.10;;;13.20;86.30;;;;;;5028415;28;20022;-81
2021/03/09 11:29:43;;;;;;;13.38;6.45;;;13.50;82.20;;;;;;5027343;28;20080;-80
2021/03/09 11:32:08;;;;;;;13.70;7.35;;;13.10;89.40;;;;;;5025597;28;20036;-80
2021/03/09 11:34:34;;;;;;;12.60;7.03;;;13.10;85.50;;;;;;5026564;28;20438;-82
2021/03/09 11:37:00;;;;;;;;;;;13.30;85.40;;;;;;5026330;28;20113;-80
2021/03/09 11:39:26;;;;;;;9.93;5.32;;;12.20;87.60;;;;;;5028944;28;20426;-80
2021/03/09 11:41:53;;;;;;;10.98;5.47;;;11.20;92.30;;;;;;5012148;28;20064;-81
2021/03/09 11:44:19;;;;;;;;;;;10.70;96.70;;;;;;5041036;28;20025;-80
2021/03/09 11:46:46;;;;;;;11.32;5.28;;;10.60;97.80;;;;;;5049044;28;19905;-82
2021/03/09 11:49:12;;;;;;;11.80;7.70;;;10.40;96.50;;;;;;5064086;28;20093;-81
2021/03/09 11:51:37;;;;;;;12.75;5.70;;;10.80;98.80;;;;;;5036068;28;20050;-80
2021/03/09 11:54:04;;;;;;;7.70;4.15;;;11.90;94.30;;;;;;5033525;28;20026;-81
2021/03/09 11:56:29;;;;;;;;;;;12.80;90.90;;;;;;5033464;28;20062;-81
2021/03/09 11:58:55;;;;;;;;;;;14.00;82.30;;;;;;5032808;28;19913;-80
2021/03/09 12:01:21;;;;;;;4.03;2.38;;;14.10;75.50;;;;;;5031692;28;20388;-81
2021/03/09 12:03:50;;;;;;;2.42;2.17;;;12.90;71.40;;;;;;5034717;28;20029;-81
2021/03/09 12:06:18;;;;;;;2.58;2.28;;;12.80;78.00;;;;;;5033365;28;20505;-81
2021/03/09 12:08:44;;;;;;;5.50;3.42;;;13.60;73.50;;;;;;5033772;28;20455;-81
2021/03/09 12:11:10;;;;;;;5.40;2.63;;;14.60;70.50;;;;;;5034527;28;20053;-81
2021/03/09 12:13:36;;;;;;;2.30;1.52;;;14.90;66.00;;;;;;5034766;28;20025;-80
2021/03/09 12:16:03;;;;;;;2.63;1.45;;;15.10;65.30;;;;;;5032670;28;20029;-81
2021/03/09 12:18:28;;;;;;;4.30;2.38;;;15.90;61.80;;;;;;5032710;28;20026;-81
2021/03/09 12:20:54;;;;;;;4.03;2.15;;;16.30;57.70;;;;;;5033464;28;20033;-81
2021/03/09 12:23:20;;;;;;;3.30;1.92;;;16.50;59.40;;;;;;5035271;28;20501;-81
2021/03/09 12:25:45;;;;;;;3.58;2.05;;;16.10;58.20;;;;;;5032978;28;20036;-80
2021/03/09 12:28:11;;;;;;;2.70;1.83;;;15.30;56.10;;;;;;5031860;28;20503;-80
2021/03/09 12:30:36;;;;;;;;;;;14.60;61.90;;;;;;5029628;28;20047;-80
2021/03/09 12:33:02;;;;;;;3.10;2.50;;;14.90;58.20;;;;;;5033031;28;20000;-82
2021/03/09 12:35:28;;;;;;;;;;;15.30;57.70;;;;;;5031881;28;20073;-81
2021/03/09 12:37:54;;;;;;;4.47;2.65;;;13.60;59.50;;;;;;5032378;28;20354;-80
2021/03/09 12:40:20;;;;;;;4.55;2.67;;;12.70;63.40;;;;;;5032224;28;20117;-80
2021/03/09 12:42:47;;;;;;;3.60;2.45;;;12.90;68.10;;;;;;5032290;28;20029;-80
2021/03/09 12:45:13;;;;;;;5.70;3.25;;;13.60;67.30;;;;;;5031331;28;20483;-80
2021/03/09 12:47:39;;;;;;;5.83;3.20;;;13.60;66.20;;;;;;5032783;28;20030;-80
2021/03/09 12:50:07;;;;;;;7.80;3.30;;;13.00;69.10;;;;;;5032101;28;20033;-79
2021/03/09 12:52:33;;;;;;;9.25;3.58;;;12.20;74.40;;;;;;5031024;28;20108;-79
2021/03/09 12:54:58;;;;;;;4.75;3.15;;;11.50;71.20;;;;;;5031919;28;20120;-79
2021/03/09 12:57:24;;;;;;;5.72;3.13;;;11.80;75.70;;;;;;5032147;28;20029;-79
2021/03/09 12:59:50;;;;;;;6.68;3.40;;;12.10;75.00;;;;;;5030888;28;20036;-78
2021/03/09 13:02:15;;;;;;;6.95;4.00;;;12.30;79.90;;;;;;5032059;28;20542;-78
2021/03/09 13:04:41;;;;;;;6.90;3.88;;;11.80;79.60;;;;;;5031326;28;20030;-79
2021/03/09 13:07:07;;;;;;;7.22;4.18;;;11.80;80.40;;;;;;5032129;28;20068;-79
2021/03/09 13:09:32;;;;;;;4.90;3.47;;;11.60;76.60;;;;;;5031815;28;20032;-79
2021/03/09 13:11:59;;;;;;;5.53;3.30;;;11.50;84.60;;;;;;5034146;28;20713;-80
2021/03/09 13:14:25;;;;;;;6.60;3.67;;;11.30;82.70;;;;;;5045331;28;20021;-80
2021/03/09 13:16:50;;;;;;;5.63;3.28;;;11.30;88.10;;;;;;5043756;28;20017;-79
2021/03/09 13:19:16;;;;;;;4.97;2.95;;;11.50;85.10;;;;;;5041871;28;20059;-79
2021/03/09 13:21:42;;;;;;;4.18;2.28;;;11.90;84.80;;;;;;5041893;28;20028;-79
2021/03/09 13:24:08;;;;;;;;;;;11.50;79.70;;;;;;5036851;28;20030;-78
2021/03/09 13:26:34;;;;;;;;;;;11.20;80.10;;;;;;5032339;28;20340;-79
2021/03/09 13:28:59;;;;;;;;;;;11.20;85.50;;;;;;5032107;28;19913;-79
2021/03/09 13:31:25;;;;;;;;;;;11.10;88.20;;;;;;5032017;28;19905;-79
2021/03/09 13:33:50;;;;;;;;;;;10.90;86.80;;;;;;5031403;28;19935;-79
2021/03/09 13:36:16;;;;;;;;;;;11.10;90.20;;;;;;5031919;28;19958;-79
2021/03/09 13:38:41;;;;;;;;;;;11.30;87.70;;;;;;5031776;28;20008;-78
2021/03/09 13:41:07;;;;;;;;;;;11.20;86.90;;;;;;5031631;28;20003;-79
2021/03/09 13:43:34;;;;;;;5.05;3.05;;;11.20;87.80;;;;;;5031280;28;19909;-78
2021/03/09 13:46:00;;;;;;;;;;;11.00;88.70;;;;;;5031022;28;20454;-79
2021/03/09 13:48:26;;;;;;;5.67;2.50;;;11.30;89.60;;;;;;5031072;28;19905;-78
2021/03/09 13:50:52;;;;;;;3.05;2.03;;;11.30;85.60;;;;;;5032062;28;20047;-78
2021/03/09 13:53:17;;;;;;;2.83;2.03;;;11.50;90.60;;;;;;5039881;28;20272;-79
2021/03/09 13:55:43;;;;;;;3.70;2.20;;;11.70;90.10;;;;;;5039981;28;20068;-79
2021/03/09 13:58:09;;;;;;;;;;;11.50;85.10;;;;;;5038814;28;19909;-78
2021/03/09 14:00:35;;;;;;;3.25;1.77;;;11.20;88.80;;;;;;5047661;28;19905;-78